Time;durP1;ratioP1;P1;durP2;ratioP2;P2;SDS_P1;SDS_P2;PMS_P1;PMS_P2;Temp;Humidity;BMP_temperature;BMP_pressure;BME280_temperature;BME280_humidity;BME280_pressure;Samples;Min_cycle;Max_cycle;Signal;HPM_P1;HPM_P2
2021/09/15 00:01:03;;;;;;;11.02;9.10;;;20.40;72.90;;;19.44;74.13;95916.22;4932908;29;20135;-65
2021/09/15 00:03:28;;;;;;;10.82;9.80;;;20.40;72.70;;;19.41;74.58;95906.03;4948253;28;20071;-65
2021/09/15 00:05:54;;;;;;;9.55;8.23;;;20.40;72.80;;;19.40;74.72;95910.56;4932635;28;20031;-66
2021/09/15 00:08:20;;;;;;;11.95;9.60;;;20.40;72.80;;;19.41;74.90;95909.53;4931852;29;20067;-65
2021/09/15 00:10:46;;;;;;;11.18;9.65;;;20.40;72.80;;;19.39;74.46;95908.97;4942882;28;20055;-65
2021/09/15 00:13:12;;;;;;;10.00;9.05;;;20.30;73.00;;;19.39;74.59;95902.81;4936895;28;20031;-65
2021/09/15 00:15:38;;;;;;;11.32;9.90;;;20.40;73.10;;;19.36;75.48;95898.00;4939934;29;20057;-65
2021/09/15 00:18:03;;;;;;;9.70;8.70;;;20.30;73.00;;;19.35;74.56;95897.19;4949665;28;20043;-65
2021/09/15 00:20:29;;;;;;;9.90;8.93;;;20.40;73.20;;;19.33;75.18;95898.50;4945794;28;20050;-64
2021/09/15 00:22:55;;;;;;;11.27;9.55;;;20.30;73.10;;;19.31;75.07;95896.06;4948116;29;20059;-65
2021/09/15 00:25:21;;;;;;;12.18;9.73;;;20.30;73.20;;;19.30;75.36;95894.47;4951802;28;20035;-65
2021/09/15 00:27:46;;;;;;;11.27;9.77;;;20.30;73.10;;;19.27;74.79;95894.97;4926631;29;20039;-65
2021/09/15 00:30:13;;;;;;;11.07;9.70;;;20.20;73.20;;;19.26;75.17;95890.69;4950711;28;20031;-65
2021/09/15 00:32:38;;;;;;;11.38;9.95;;;20.30;73.30;;;19.25;76.00;95891.75;4948004;28;20122;-64
2021/09/15 00:35:06;;;;;;;10.85;9.65;;;20.20;73.30;;;19.26;75.52;95888.03;4916274;29;20535;-65
2021/09/15 00:37:33;;;;;;;11.20;9.93;;;20.20;73.40;;;19.24;75.87;95890.94;4938501;29;20201;-65
2021/09/15 00:39:58;;;;;;;12.60;9.95;;;20.20;73.50;;;19.22;75.32;95887.69;4934821;28;20043;-65
2021/09/15 00:42:24;;;;;;;11.27;9.63;;;20.20;73.40;;;19.19;75.78;95884.72;4936609;29;20067;-65
2021/09/15 00:44:50;;;;;;;10.40;9.23;;;20.20;73.50;;;19.19;75.88;95890.03;4923528;29;20028;-65
2021/09/15 00:47:16;;;;;;;10.50;9.40;;;20.10;73.60;;;19.16;75.14;95890.53;4933812;28;20479;-65
2021/09/15 00:49:41;;;;;;;10.13;9.13;;;20.10;73.80;;;19.12;76.59;95887.56;4935146;29;20094;-65
2021/09/15 00:52:07;;;;;;;11.93;10.02;;;20.10;73.90;;;19.09;75.88;95887.25;4950402;28;20063;-65
2021/09/15 00:54:33;;;;;;;11.35;9.48;;;20.10;74.00;;;19.08;76.12;95883.00;4950758;28;20035;-65
2021/09/15 00:56:59;;;;;;;14.88;10.23;;;20.10;74.00;;;19.05;76.05;95884.28;4947010;28;20067;-65
2021/09/15 00:59:24;;;;;;;11.77;9.90;;;20.00;74.00;;;19.01;76.08;95891.19;4947858;28;20130;-65
2021/09/15 01:01:50;;;;;;;11.05;9.98;;;20.00;74.10;;;18.97;76.41;95885.50;4959723;28;20110;-65
2021/09/15 01:04:16;;;;;;;11.35;9.75;;;20.00;74.20;;;18.99;76.41;95890.59;4933271;28;20503;-65
2021/09/15 01:06:42;;;;;;;10.45;9.32;;;20.00;74.10;;;18.98;75.43;95892.44;4936652;29;20087;-65
2021/09/15 01:09:07;;;;;;;10.57;9.48;;;20.00;74.10;;;18.98;76.08;95892.44;4945833;28;20047;-65
2021/09/15 01:11:38;;;;;;;10.80;9.68;;;20.00;74.00;;;18.97;76.27;95890.03;4934247;29;20067;-65
2021/09/15 01:14:04;;;;;;;10.38;9.27;;;19.90;74.30;;;18.93;75.86;95895.06;4950249;28;20094;-65
2021/09/15 01:16:56;;;;;;;10.27;9.15;;;19.90;74.50;;;18.92;77.13;95892.63;4928070;29;20042;-65
2021/09/15 01:19:23;;;;;;;11.27;9.70;;;19.90;74.60;;;18.87;76.41;95892.56;4930494;29;20032;-65
2021/09/15 01:21:55;;;;;;;12.90;9.82;;;19.80;74.70;;;18.83;76.89;95889.59;4914755;29;20040;-65
2021/09/15 01:24:22;;;;;;;10.38;9.38;;;19.80;74.80;;;18.81;77.30;95890.91;4933844;28;20110;-65
2021/09/15 01:26:48;;;;;;;11.80;10.55;;;19.80;74.80;;;18.80;77.60;95889.28;4931390;28;20031;-65
2021/09/15 01:29:15;;;;;;;12.15;9.75;;;19.80;74.80;;;18.72;76.40;95887.84;4916236;29;20139;-65
2021/09/15 01:32:01;;;;;;;11.93;10.82;;;19.70;74.90;;;18.70;77.51;95887.28;4923067;29;20039;-65
2021/09/15 01:34:28;;;;;;;17.98;10.60;;;19.70;75.10;;;18.68;76.45;95881.38;4932244;29;20086;-65
2021/09/15 01:36:54;;;;;;;12.32;10.90;;;19.60;75.10;;;18.60;77.72;95879.13;4931518;28;20042;-65
2021/09/15 01:39:19;;;;;;;12.55;11.23;;;19.60;75.20;;;18.59;77.32;95877.50;4949537;28;20039;-65
2021/09/15 01:41:45;;;;;;;11.88;10.20;;;19.60;75.30;;;18.58;77.01;95881.22;4909216;29;20822;-65
2021/09/15 01:44:11;;;;;;;11.63;10.43;;;19.60;75.40;;;18.56;77.01;95883.31;4935592;28;20082;-65
2021/09/15 01:46:37;;;;;;;12.35;11.05;;;19.50;75.40;;;18.52;77.08;95880.31;4917873;29;20058;-65
2021/09/15 01:49:03;;;;;;;12.75;11.43;;;19.40;75.70;;;18.48;77.69;95881.06;4925095;29;20496;-65
2021/09/15 01:51:28;;;;;;;11.85;10.65;;;19.40;75.80;;;18.40;78.12;95881.47;4948379;28;20071;-64
2021/09/15 01:53:54;;;;;;;12.52;10.77;;;19.40;75.80;;;18.35;77.86;95872.38;4933402;29;20028;-65
2021/09/15 01:56:20;;;;;;;12.52;11.23;;;19.20;76.00;;;18.33;78.16;95873.63;4944534;29;20036;-65
2021/09/15 01:58:45;;;;;;;12.55;10.57;;;19.30;75.90;;;18.32;78.24;95872.81;4944802;28;20095;-64
2021/09/15 02:01:11;;;;;;;13.13;10.82;;;19.20;76.00;;;18.27;78.27;95871.94;4942153;28;20036;-65
2021/09/15 02:03:37;;;;;;;12.30;11.00;;;19.20;76.10;;;18.25;78.38;95869.53;4933914;28;20106;-65
2021/09/15 02:06:03;;;;;;;12.95;11.65;;;19.20;76.20;;;18.19;78.08;95873.16;4949146;28;20337;-65
2021/09/15 02:08:28;;;;;;;14.13;11.30;;;19.10;76.30;;;18.14;77.96;95865.09;4930966;29;20508;-65
2021/09/15 02:10:54;;;;;;;12.82;11.13;;;19.10;76.30;;;18.11;78.67;95870.91;4937203;28;20059;-65
2021/09/15 02:13:20;;;;;;;13.63;12.23;;;19.00;76.40;;;18.02;78.50;95856.38;4939688;28;20176;-65
2021/09/15 02:15:46;;;;;;;13.40;11.95;;;19.00;76.50;;;17.96;79.22;95854.69;4948129;28;20059;-65
2021/09/15 02:18:11;;;;;;;15.23;12.38;;;18.90;76.50;;;17.92;78.79;95854.38;4934298;28;20095;-65
2021/09/15 02:20:38;;;;;;;28.70;24.90;;;18.80;76.70;;;17.86;78.73;95849.19;4918852;29;20063;-65
2021/09/15 02:23:04;;;;;;;26.05;23.27;;;18.70;76.90;;;17.77;79.65;95842.66;4924374;29;20039;-65
2021/09/15 02:25:30;;;;;;;51.70;43.95;;;18.70;77.20;;;17.69;79.77;95842.00;4952343;28;20106;-65
2021/09/15 02:27:55;;;;;;;24.13;21.40;;;18.70;77.10;;;17.64;79.53;95844.53;4920049;28;20407;-65
2021/09/15 02:30:21;;;;;;;16.00;14.50;;;18.60;77.40;;;17.62;79.60;95845.81;4937891;29;20039;-65
2021/09/15 02:32:47;;;;;;;30.92;27.15;;;18.60;77.60;;;17.61;79.90;95850.31;4949585;28;20409;-64
2021/09/15 02:35:13;;;;;;;30.77;27.60;;;18.60;77.70;;;17.60;80.58;95842.59;4929775;29;20094;-65
2021/09/15 02:37:39;;;;;;;25.33;21.70;;;18.70;77.70;;;17.62;79.66;95843.16;4954283;28;20042;-65
2021/09/15 02:40:06;;;;;;;18.00;16.10;;;18.60;77.60;;;17.60;79.92;95837.25;4951186;28;20039;-65
2021/09/15 02:42:32;;;;;;;15.88;14.25;;;18.60;77.70;;;17.59;80.36;95831.13;4934478;29;20039;-65
2021/09/15 02:44:58;;;;;;;15.75;14.15;;;18.60;77.50;;;17.57;80.63;95835.09;4928959;29;20102;-65
2021/09/15 02:47:23;;;;;;;15.32;13.82;;;18.60;77.70;;;17.56;80.20;95834.28;4936336;29;20039;-65
2021/09/15 02:49:49;;;;;;;18.42;15.25;;;18.60;77.60;;;17.55;80.51;95838.00;4933659;29;20497;-64
2021/09/15 02:52:15;;;;;;;17.58;15.77;;;18.60;77.60;;;17.50;80.24;95837.91;4945108;28;20562;-67
2021/09/15 02:54:40;;;;;;;20.00;16.27;;;18.60;77.80;;;17.48;80.27;95833.88;4952062;28;20043;-66
2021/09/15 02:57:06;;;;;;;18.70;16.58;;;18.60;78.10;;;17.45;80.54;95843.13;4919276;29;20448;-65
2021/09/15 02:59:32;;;;;;;30.17;26.92;;;18.50;78.10;;;17.43;80.47;95842.56;4936114;28;20526;-64
2021/09/15 03:01:58;;;;;;;31.27;27.98;;;18.50;78.30;;;17.40;81.14;95838.50;4948995;28;20036;-65
2021/09/15 03:04:24;;;;;;;21.10;18.83;;;18.50;78.40;;;17.38;81.69;95837.94;4952827;28;20038;-65
2021/09/15 03:06:49;;;;;;;19.58;17.67;;;18.50;78.40;;;17.37;81.73;95832.84;4936504;29;20043;-65
2021/09/15 03:09:15;;;;;;;19.25;17.35;;;18.40;78.50;;;17.35;81.67;95829.63;4952623;28;20087;-65
2021/09/15 03:11:41;;;;;;;17.80;15.93;;;18.40;78.50;;;17.34;81.57;95833.34;4919529;29;20058;-64
2021/09/15 03:14:06;;;;;;;18.17;16.30;;;18.40;78.40;;;17.29;81.20;95827.94;4951850;28;20070;-64
2021/09/15 03:16:32;;;;;;;19.77;16.88;;;18.30;78.10;;;17.25;81.18;95826.81;4951437;28;20031;-65
2021/09/15 03:18:58;;;;;;;24.42;22.13;;;18.30;78.10;;;17.24;81.23;95835.81;4948533;28;20190;-65
2021/09/15 03:21:24;;;;;;;19.27;17.23;;;18.30;78.20;;;17.25;81.73;95834.78;4933511;29;20032;-65
2021/09/15 03:23:49;;;;;;;19.17;17.27;;;18.30;78.20;;;17.23;81.26;95837.66;4919299;29;20049;-65
2021/09/15 03:26:15;;;;;;;19.80;16.40;;;18.20;77.90;;;17.20;80.88;95832.84;4943785;28;20071;-65
2021/09/15 03:28:41;;;;;;;18.48;16.58;;;18.10;78.00;;;17.15;80.83;95830.84;4935394;29;20116;-65
2021/09/15 03:31:07;;;;;;;17.83;15.82;;;18.10;78.20;;;17.13;80.92;95830.28;4917744;29;20496;-65
2021/09/15 03:33:33;;;;;;;17.17;15.38;;;18.10;78.20;;;17.09;81.03;95831.00;4947610;28;20047;-65
2021/09/15 03:35:59;;;;;;;18.52;16.73;;;18.10;78.30;;;17.00;81.31;95827.94;4940580;28;20039;-65
2021/09/15 03:38:25;;;;;;;18.35;16.25;;;18.00;78.50;;;16.96;81.77;95820.63;4930566;29;20051;-65
2021/09/15 03:40:51;;;;;;;17.60;15.90;;;18.00;78.80;;;16.94;81.32;95828.84;4952075;28;20050;-65
2021/09/15 03:43:16;;;;;;;18.63;16.00;;;18.00;78.90;;;16.91;81.94;95824.00;4939976;28;20047;-65
2021/09/15 03:45:42;;;;;;;17.85;16.05;;;17.90;79.10;;;16.90;82.25;95827.69;4916935;29;20024;-65
2021/09/15 03:48:08;;;;;;;18.42;16.58;;;17.90;79.30;;;16.89;82.61;95828.75;4947071;28;20119;-65
2021/09/15 03:50:34;;;;;;;19.30;17.20;;;17.90;79.50;;;16.88;82.68;95819.16;4932540;29;20039;-64
2021/09/15 03:52:59;;;;;;;19.02;17.13;;;18.00;79.60;;;16.88;83.28;95824.47;4928742;28;20062;-64
2021/09/15 03:55:25;;;;;;;20.95;17.58;;;18.00;79.70;;;16.88;82.97;95813.03;4935058;29;20547;-70
2021/09/15 03:57:51;;;;;;;19.40;17.48;;;18.00;79.60;;;16.87;82.68;95816.75;4930309;28;20138;-66
2021/09/15 04:00:17;;;;;;;19.15;17.15;;;18.00;79.50;;;16.85;82.72;95814.31;4943956;28;20455;-66
2021/09/15 04:02:42;;;;;;;19.00;16.75;;;18.00;79.60;;;16.85;83.34;95814.31;4916705;29;20034;-66
2021/09/15 04:05:08;;;;;;;20.55;18.45;;;17.90;79.70;;;16.84;83.08;95813.53;4930933;29;20070;-67
2021/09/15 04:07:34;;;;;;;20.20;18.13;;;17.90;79.70;;;16.83;83.66;95816.41;4935816;29;20035;-66
2021/09/15 04:10:00;;;;;;;20.40;18.30;;;17.80;79.80;;;16.80;83.43;95815.03;4951524;28;20738;-66
2021/09/15 04:12:25;;;;;;;20.38;18.35;;;17.80;79.70;;;16.80;83.45;95811.56;4909358;29;20086;-66
2021/09/15 04:14:51;;;;;;;20.73;18.65;;;17.90;79.80;;;16.81;83.40;95807.88;4932896;29;20067;-66
2021/09/15 04:17:17;;;;;;;22.23;17.92;;;17.90;79.60;;;16.83;83.07;95805.78;4938139;29;20125;-66
2021/09/15 04:19:43;;;;;;;19.92;17.98;;;18.00;79.50;;;16.81;83.65;95811.34;4951539;28;20062;-66
2021/09/15 04:22:15;;;;;;;20.58;18.38;;;18.00;79.50;;;16.77;83.46;95817.34;4935295;28;20574;-66
2021/09/15 04:33:01;;;;;;;20.20;18.17;;;17.80;79.80;;;16.69;83.78;95809.72;4945784;28;20058;-66
2021/09/15 04:35:27;;;;;;;19.77;17.27;;;17.80;79.90;;;16.70;84.28;95817.47;4901520;29;20035;-66
2021/09/15 04:37:53;;;;;;;19.80;17.83;;;17.80;79.90;;;16.68;84.32;95816.91;4916369;29;20047;-66
2021/09/15 04:40:18;;;;;;;19.38;17.38;;;17.80;79.80;;;16.69;83.61;95821.16;4900113;28;20047;-66
2021/09/15 04:42:44;;;;;;;19.52;17.60;;;17.80;79.70;;;16.72;83.36;95809.25;4925188;29;20123;-66
2021/09/15 04:45:10;;;;;;;21.10;18.60;;;17.80;79.60;;;16.72;84.03;95809.25;4935693;28;20043;-66
2021/09/15 04:47:36;;;;;;;20.02;18.08;;;17.80;79.60;;;16.72;83.31;95811.91;4934902;28;20031;-66
2021/09/15 04:50:03;;;;;;;19.35;17.45;;;17.80;79.50;;;16.72;84.14;95804.75;4918976;28;20059;-66
2021/09/15 04:52:28;;;;;;;25.88;18.23;;;17.90;79.50;;;16.73;83.78;95806.38;4934950;29;20110;-66
2021/09/15 04:54:54;;;;;;;19.67;17.67;;;17.90;79.50;;;16.73;83.62;95816.19;4951139;28;20039;-66
2021/09/15 04:57:20;;;;;;;20.00;18.08;;;17.80;79.60;;;16.73;83.53;95817.00;4926178;29;20063;-66
2021/09/15 04:59:46;;;;;;;19.50;17.20;;;17.80;79.70;;;16.71;83.82;95828.91;4916123;29;20059;-66
2021/09/15 05:02:11;;;;;;;19.77;17.73;;;17.80;79.60;;;16.69;83.98;95830.97;4932506;28;20059;-66
2021/09/15 05:04:37;;;;;;;22.42;17.92;;;17.80;79.90;;;16.68;83.77;95835.47;4935032;29;20059;-66
2021/09/15 05:07:03;;;;;;;20.10;17.77;;;17.80;79.70;;;16.69;84.18;95842.41;4919387;29;20035;-68
2021/09/15 05:09:29;;;;;;;18.90;16.75;;;17.80;80.00;;;16.70;83.92;95844.03;4919236;29;20050;-66
2021/09/15 05:11:54;;;;;;;19.55;17.60;;;17.80;80.20;;;16.70;84.34;95841.38;4933898;29;20573;-66
2021/09/15 05:14:20;;;;;;;18.80;16.75;;;17.90;80.00;;;16.72;83.86;95839.28;4934710;28;20039;-66
2021/09/15 05:16:46;;;;;;;17.65;15.75;;;18.00;80.00;;;16.75;84.24;95840.69;4919015;29;20633;-66
2021/09/15 05:19:12;;;;;;;17.98;16.08;;;17.90;79.80;;;16.75;83.84;95838.03;4950970;28;20039;-66
2021/09/15 05:21:37;;;;;;;17.70;15.55;;;17.90;79.80;;;16.76;83.97;95843.13;4942992;28;20094;-66
2021/09/15 05:24:03;;;;;;;17.30;15.50;;;17.90;79.80;;;16.78;84.58;95842.88;4943525;28;20063;-66
2021/09/15 05:26:29;;;;;;;17.35;15.65;;;18.00;79.70;;;16.81;84.49;95845.88;4931507;29;20028;-66
2021/09/15 05:28:55;;;;;;;17.05;15.25;;;18.10;79.50;;;16.84;84.29;95855.22;4931609;29;20117;-66
2021/09/15 05:31:21;;;;;;;17.95;14.95;;;18.10;79.50;;;16.85;84.12;95843.53;4920593;29;20031;-66
2021/09/15 05:33:46;;;;;;;17.70;15.80;;;18.10;79.30;;;16.90;84.44;95853.47;4951453;28;20035;-66
2021/09/15 05:36:12;;;;;;;19.17;15.98;;;18.10;79.40;;;16.93;85.08;95842.38;4934309;28;20031;-66
2021/09/15 05:38:38;;;;;;;18.55;15.55;;;18.20;79.60;;;16.97;84.84;95838.19;4918524;29;20063;-66
2021/09/15 05:41:04;;;;;;;20.55;14.90;;;18.20;79.30;;;17.01;84.66;95845.47;4915831;29;20035;-66
2021/09/15 05:43:29;;;;;;;17.15;15.25;;;18.30;79.30;;;17.06;84.29;95847.44;4915125;29;20047;-66
2021/09/15 05:45:55;;;;;;;17.40;15.55;;;18.40;79.10;;;17.07;84.26;95849.84;4899936;29;20032;-66
2021/09/15 05:48:21;;;;;;;19.38;16.38;;;18.40;78.90;;;17.11;84.34;95836.88;4947311;28;20032;-66
2021/09/15 05:50:46;;;;;;;19.60;17.17;;;18.50;78.70;;;17.14;84.27;95839.88;4917223;29;20348;-66
2021/09/15 05:53:12;;;;;;;18.60;16.63;;;18.50;78.90;;;17.20;84.83;95842.63;4936721;29;20507;-66
2021/09/15 05:55:38;;;;;;;18.40;16.45;;;18.60;79.00;;;17.26;84.55;95847.03;4931165;29;20055;-64
2021/09/15 05:58:04;;;;;;;21.52;16.63;;;18.60;78.80;;;17.30;84.29;95853.47;4914939;28;20417;-64
2021/09/15 06:00:30;;;;;;;20.25;17.80;;;18.60;78.90;;;17.35;84.40;95850.91;4931330;29;20088;-64
2021/09/15 06:02:58;;;;;;;18.95;16.95;;;18.70;78.50;;;17.37;84.02;95844.31;4948613;28;20035;-64
2021/09/15 06:05:24;;;;;;;19.10;17.10;;;18.70;78.10;;;17.39;84.12;95836.09;4934636;29;20609;-64
2021/09/15 06:07:50;;;;;;;21.40;18.20;;;18.70;78.20;;;17.41;83.90;95840.13;4934116;29;20043;-64
2021/09/15 06:10:16;;;;;;;21.02;18.92;;;18.80;78.00;;;17.45;84.39;95841.28;4934073;28;20035;-65
2021/09/15 06:12:42;;;;;;;18.85;16.85;;;18.80;78.10;;;17.48;83.66;95845.31;4923494;29;20031;-65
2021/09/15 06:15:08;;;;;;;20.30;17.35;;;18.90;78.30;;;17.53;83.59;95837.41;4915224;29;20566;-65
2021/09/15 06:17:34;;;;;;;22.08;18.23;;;18.90;78.20;;;17.57;84.13;95838.56;4915087;29;20035;-65
2021/09/15 06:20:00;;;;;;;19.77;17.45;;;19.00;78.10;;;17.60;84.28;95838.06;4930791;28;20553;-64
2021/09/15 06:22:26;;;;;;;19.75;17.77;;;19.00;78.00;;;17.66;84.03;95837.13;4922643;28;20482;-64
2021/09/15 06:24:53;;;;;;;19.65;17.63;;;19.10;77.70;;;17.73;83.63;95832.50;4950075;28;20798;-65
2021/09/15 06:27:23;;;;;;;19.40;17.38;;;19.20;77.50;;;17.79;83.97;95835.22;4946819;28;20079;-64
2021/09/15 06:29:49;;;;;;;19.25;17.35;;;19.30;77.00;;;17.85;82.98;95832.41;4899185;29;20040;-64
2021/09/15 06:32:21;;;;;;;19.92;17.95;;;19.40;77.00;;;17.93;84.01;95836.53;4914895;28;20043;-65
2021/09/15 06:34:47;;;;;;;18.27;16.48;;;19.40;76.80;;;18.00;83.28;95835.31;4899584;29;20074;-65
2021/09/15 06:37:14;;;;;;;17.85;16.02;;;19.50;76.60;;;18.07;83.14;95843.16;4931210;29;20047;-64
2021/09/15 06:39:40;;;;;;;16.50;14.90;;;19.60;76.10;;;18.15;81.88;95856.06;4930704;29;20036;-64
2021/09/15 06:42:06;;;;;;;17.05;15.30;;;19.70;75.60;;;18.20;82.18;95858.81;4934699;28;20055;-64
2021/09/15 06:44:32;;;;;;;18.75;15.05;;;19.60;75.80;;;18.24;81.70;95854.59;4934006;29;20162;-65
2021/09/15 06:46:58;;;;;;;16.40;14.80;;;19.70;75.90;;;18.28;82.75;95854.91;4933758;29;20040;-65
2021/09/15 06:49:24;;;;;;;17.92;14.75;;;19.70;75.90;;;18.30;82.19;95853.63;4950920;28;20050;-65
2021/09/15 06:51:49;;;;;;;16.65;14.95;;;19.70;75.90;;;18.34;81.45;95857.44;4931215;29;20115;-65
2021/09/15 06:54:15;;;;;;;16.08;14.23;;;19.80;75.90;;;18.41;81.55;95859.13;4941879;28;20059;-65
2021/09/15 06:56:41;;;;;;;16.88;14.25;;;19.80;75.90;;;18.47;81.23;95863.47;4933720;29;20032;-66
2021/09/15 06:59:07;;;;;;;14.57;13.07;;;20.00;75.60;;;18.49;82.02;95866.69;4949947;28;20073;-65
2021/09/15 07:01:32;;;;;;;15.15;12.20;;;19.90;75.50;;;18.50;81.60;95852.31;4933541;28;20559;-66
2021/09/15 07:03:58;;;;;;;13.88;11.82;;;20.00;74.90;;;18.57;81.53;95852.97;4932889;28;20055;-67
2021/09/15 07:06:24;;;;;;;11.00;9.90;;;20.10;74.50;;;18.67;81.21;95853.94;4918229;29;20488;-66
2021/09/15 07:08:52;;;;;;;13.23;11.82;;;20.30;73.90;;;18.73;80.75;95854.81;4902428;29;20578;-66
2021/09/15 07:11:18;;;;;;;12.70;11.25;;;20.20;73.60;;;18.76;79.88;95850.84;4918996;29;20359;-66
2021/09/15 07:13:44;;;;;;;12.55;11.25;;;20.20;73.60;;;18.81;80.34;95865.06;4950983;28;20035;-66
2021/09/15 07:16:09;;;;;;;14.82;10.93;;;20.20;73.70;;;18.82;80.19;95869.34;4936703;28;20158;-66
2021/09/15 07:18:35;;;;;;;13.52;10.77;;;20.20;73.90;;;18.79;80.23;95874.34;4936904;29;20102;-66
2021/09/15 07:21:01;;;;;;;14.13;10.70;;;20.10;74.50;;;18.77;79.64;95879.09;4953113;28;20067;-66
2021/09/15 07:23:27;;;;;;;13.15;11.68;;;20.10;75.20;;;18.74;80.58;95875.06;4949333;28;20035;-66
2021/09/15 07:25:52;;;;;;;15.90;11.85;;;20.10;75.40;;;18.76;80.34;95877.47;4933759;29;20066;-66
2021/09/15 07:28:18;;;;;;;17.40;15.20;;;20.10;75.50;;;18.78;81.04;95870.03;4933270;28;20032;-66
2021/09/15 07:30:44;;;;;;;20.02;17.10;;;20.20;75.90;;;18.82;80.11;95865.88;4917614;29;20039;-66
2021/09/15 07:33:10;;;;;;;13.15;11.75;;;20.30;75.40;;;18.87;80.15;95861.41;4929867;29;20039;-66
2021/09/15 07:35:36;;;;;;;16.02;14.30;;;20.40;75.10;;;18.91;81.06;95854.50;4917284;29;20127;-66
2021/09/15 07:38:01;;;;;;;15.00;12.45;;;20.40;75.50;;;18.97;81.34;95863.38;4917171;28;20047;-66
2021/09/15 07:40:27;;;;;;;15.38;13.77;;;20.50;75.20;;;19.06;81.38;95853.09;4933653;29;20051;-65
2021/09/15 07:42:53;;;;;;;13.35;11.95;;;20.60;75.20;;;19.13;81.90;95851.84;4911206;29;20042;-66
2021/09/15 07:45:19;;;;;;;17.70;15.05;;;20.70;75.20;;;19.23;80.77;95845.81;4953821;28;20039;-66
2021/09/15 07:47:44;;;;;;;13.63;12.23;;;20.90;74.90;;;19.32;82.06;95849.69;4940470;28;20038;-66
2021/09/15 07:50:10;;;;;;;13.32;11.95;;;21.10;74.60;;;19.40;81.06;95854.56;4928169;28;20040;-65
2021/09/15 07:52:36;;;;;;;13.07;11.57;;;21.10;74.00;;;19.49;81.34;95839.75;4932697;29;20099;-65
2021/09/15 07:55:03;;;;;;;12.40;11.07;;;21.20;73.70;;;19.56;80.65;95839.56;4920686;29;20492;-66
2021/09/15 07:57:29;;;;;;;12.98;11.57;;;21.20;73.70;;;19.60;80.72;95830.00;4952630;28;20047;-65
2021/09/15 07:59:54;;;;;;;12.85;11.40;;;21.20;73.90;;;19.62;80.35;95827.06;4952420;28;20486;-66
2021/09/15 08:02:20;;;;;;;13.07;11.40;;;21.20;74.00;;;19.66;80.58;95839.66;4951394;28;20075;-66
2021/09/15 08:04:46;;;;;;;13.02;11.73;;;21.20;74.40;;;19.71;81.18;95846.91;4935857;29;20054;-66
2021/09/15 08:07:12;;;;;;;15.63;14.05;;;21.20;74.50;;;19.68;80.51;95834.06;4936192;29;20034;-66
2021/09/15 08:09:38;;;;;;;15.35;13.68;;;21.10;74.30;;;19.67;80.77;95837.78;4952116;28;20031;-66
2021/09/15 08:12:04;;;;;;;15.18;13.68;;;21.10;74.00;;;19.67;80.49;95835.13;4918929;28;20742;-66
2021/09/15 08:14:29;;;;;;;15.85;12.50;;;21.10;73.70;;;19.66;80.24;95834.31;4952178;28;20035;-66
2021/09/15 08:16:55;;;;;;;17.10;15.27;;;21.10;74.00;;;19.67;80.60;95837.78;4935984;29;20039;-66
2021/09/15 08:19:22;;;;;;;17.33;15.13;;;21.10;74.10;;;19.69;79.76;95838.34;4920214;29;20082;-66
2021/09/15 08:21:49;;;;;;;20.30;18.15;;;21.20;74.40;;;19.71;80.86;95825.56;4951256;28;20123;-66
2021/09/15 08:24:14;;;;;;;14.10;12.10;;;21.10;75.30;;;19.71;80.38;95820.25;4948381;28;20595;-66
2021/09/15 08:26:41;;;;;;;14.48;12.85;;;21.10;74.90;;;19.70;81.01;95814.09;4916667;29;20105;-66
2021/09/15 08:29:06;;;;;;;17.73;15.85;;;21.20;75.10;;;19.74;80.41;95817.88;4901214;29;20028;-66
2021/09/15 08:31:32;;;;;;;18.27;15.02;;;21.40;74.90;;;19.83;80.91;95812.84;4916617;29;20376;-65
2021/09/15 08:33:58;;;;;;;15.68;14.10;;;21.60;74.40;;;19.94;80.82;95803.09;4930029;28;20096;-68
2021/09/15 08:36:24;;;;;;;12.95;11.55;;;21.80;74.30;;;20.04;81.98;95809.28;4916676;29;20457;-65
2021/09/15 08:38:49;;;;;;;12.35;10.68;;;22.00;73.80;;;20.16;81.14;95801.94;4916259;29;20062;-66
2021/09/15 08:41:16;;;;;;;12.73;9.93;;;22.10;72.90;;;20.32;80.61;95812.69;4916745;29;20042;-65
2021/09/15 08:43:42;;;;;;;11.85;9.88;;;22.40;72.30;;;20.48;81.13;95814.44;4930486;28;20043;-66
2021/09/15 08:46:11;;;;;;;11.20;9.10;;;22.60;71.80;;;20.61;79.40;95822.00;4935072;28;20122;-66
2021/09/15 08:48:39;;;;;;;10.50;9.23;;;22.70;69.60;;;20.75;79.09;95820.47;4951151;28;20027;-66
2021/09/15 08:51:14;;;;;;;12.40;8.48;;;22.80;69.60;;;20.88;78.20;95818.41;4935756;29;20035;-66
2021/09/15 08:53:44;;;;;;;11.63;9.60;;;22.80;69.90;;;21.02;78.87;95814.16;4945615;28;20183;-66
2021/09/15 08:56:10;;;;;;;9.43;8.50;;;23.00;70.20;;;21.13;78.63;95809.66;4919361;28;20039;-66
2021/09/15 08:58:35;;;;;;;9.82;8.35;;;23.00;70.50;;;21.26;78.51;95814.53;4934888;28;20703;-66
2021/09/15 09:01:14;;;;;;;10.50;8.43;;;23.10;69.30;;;21.39;77.51;95814.88;4947929;28;20078;-66
2021/09/15 09:03:41;;;;;;;9.05;8.15;;;23.30;69.40;;;21.46;76.99;95824.50;4934826;29;20035;-66
2021/09/15 09:06:10;;;;;;;10.02;7.95;;;23.40;68.10;;;21.51;75.98;95816.50;4934809;28;20039;-66
2021/09/15 09:08:43;;;;;;;12.50;9.10;;;23.40;67.60;;;21.54;75.17;95805.28;4950819;28;20031;-66
2021/09/15 09:11:13;;;;;;;9.55;8.27;;;23.40;67.20;;;21.61;75.25;95806.59;4928294;29;20122;-66
2021/09/15 09:13:51;;;;;;;10.45;8.15;;;23.50;67.20;;;21.76;74.22;95813.88;4926616;29;20042;-66
2021/09/15 09:16:20;;;;;;;10.80;8.77;;;23.60;67.10;;;21.82;74.71;95817.34;4934519;28;20451;-66
2021/09/15 09:18:58;;;;;;;10.85;9.55;;;23.50;67.30;;;21.88;74.49;95819.75;4950780;28;20051;-66
2021/09/15 09:21:28;;;;;;;10.60;9.25;;;23.50;67.70;;;21.89;73.72;95818.69;4926334;29;20080;-66
2021/09/15 09:23:58;;;;;;;;;;;23.40;67.00;;;21.83;72.70;95819.75;4931899;29;20054;-67
2021/09/15 09:26:51;;;;;;;9.98;8.43;;;23.40;66.50;;;21.81;73.52;95827.25;4915557;29;20005;-66
2021/09/15 09:29:35;;;;;;;10.40;8.38;;;23.40;68.20;;;21.76;73.45;95821.91;4905096;29;20043;-65
2021/09/15 09:32:09;;;;;;;11.35;8.68;;;23.20;67.80;;;21.68;73.93;95825.09;4933218;28;20523;-65
2021/09/15 09:34:41;;;;;;;11.05;8.70;;;23.10;67.20;;;21.66;73.38;95829.91;4924455;28;20094;-65
2021/09/15 09:37:13;;;;;;;11.93;8.85;;;23.10;67.40;;;21.60;73.62;95836.31;4950708;28;20206;-65
2021/09/15 09:39:47;;;;;;;10.73;8.82;;;23.00;68.20;;;21.57;74.47;95847.56;4934594;29;20157;-65
2021/09/15 09:42:40;;;;;;;10.75;9.30;;;23.00;69.30;;;21.52;74.29;95860.94;4950030;28;20124;-66
2021/09/15 09:45:06;;;;;;;10.30;8.05;;;22.90;69.00;;;21.47;75.40;95864.38;4933917;29;20040;-65
2021/09/15 09:47:33;;;;;;;11.90;8.68;;;22.90;69.60;;;21.40;74.91;95875.34;4950259;28;20411;-65
2021/09/15 09:50:17;;;;;;;10.68;8.38;;;22.70;69.90;;;21.34;76.01;95891.66;4916594;29;20171;-65
2021/09/15 09:52:53;;;;;;;11.32;8.73;;;22.60;71.10;;;21.27;75.63;95909.78;4931916;28;20146;-65
2021/09/15 09:55:19;;;;;;;10.23;8.55;;;22.50;71.60;;;21.22;75.32;95899.03;4931295;29;20036;-65
2021/09/15 09:57:51;;;;;;;11.50;8.45;;;22.60;71.30;;;21.17;75.88;95891.81;4946864;28;20060;-65
2021/09/15 10:00:17;;;;;;;10.68;8.77;;;22.60;71.20;;;21.18;76.36;95866.66;4948138;28;20036;-65
2021/09/15 10:02:43;;;;;;;11.35;8.50;;;22.60;71.00;;;21.22;76.01;95872.28;4949988;28;20036;-66
2021/09/15 10:05:09;;;;;;;9.43;8.25;;;22.70;71.40;;;21.27;76.53;95878.47;4934472;29;20050;-66
2021/09/15 10:07:36;;;;;;;13.00;8.68;;;22.90;71.20;;;21.30;75.76;95872.63;4934091;28;20032;-66
2021/09/15 10:10:02;;;;;;;13.90;9.65;;;22.80;70.70;;;21.36;76.68;95874.25;4918860;28;20499;-66
2021/09/15 10:12:28;;;;;;;10.98;9.45;;;23.00;71.00;;;21.43;76.94;95860.63;4916014;29;20032;-65
2021/09/15 10:14:59;;;;;;;13.43;10.77;;;23.10;70.50;;;21.51;76.54;95875.38;4934426;29;20043;-65